OITM

Sahand Airport

Airport
ICAO code
OITM
IATA Code
ACP
Summary
ICAO Region
MID
ICAO Territory
Location

Maragheh Sahand, East Azerbaijan Province

Serving
Bonab
Elevation
4396 ft
Coordinates
37° 20' 49" N , 46° 8' 40" E
KCC
Metar
Observation
OITM 070200Z 09004KT 8000 FEW035 BKN090 02/M02 Q1020
Station
Maragheh / Sahand
Date/Time
2022-12-07 02:00:00
Wind direction
90°
Wind speed
04 kts
Lowest cloud amount
few clouds
Temperature
2°C
Dew point
-2°C
Humidity
74%
QNH
1020 hPa
Weather condition
n/a

Airport 7km east of the city of Bonab in Iran.

Climatology

Semi-arid climate (Köppen climate classification BSk).

Runways

Designator Length Width Surface Rops
8/26 2930 30 ASP No/No

Airport map

Aerial View

SKYbrary Partners:

Safety knowledge contributed by: